Lyn May, Ohio
Current Conditions -  °F | °C
As of 2:45 PM on Saturday 25 Oct 2014 (Local Time) from KCGF Reporting Station
Clear Clear  
Wind Chill: 64°   Ceiling: Unl
Heat Index: 64°   Visibility: 10mi
Dew Point: 55°   Wind: 18mph
Humidity: 73%   Direction: 300°WNW
Pressure: 29.78"   Gusts: 26mph
Location:  41.5003°N, 81.466°W
Report Text: KCGF 251845Z 30016G23KT 10SM SKC 18/13 A2978
Loading
Personal Weather Stations






























Interactive Weather Map
Tropical Storm Tracking
New forecast layout! Learn more

10-Day Weather Forecast

Advertisements
Track Severe Weather on mobile